Accueil
METAR-TAF:

METAR-TAF

Aéroports :

Aérodrome de Gällivare

Gällivare, Suède

latitude: 67-09N, longitude: 020-39E, altitude: 359 m

Observation

Le bulletin a été fait il y a 32 minutes, à 20:50 UTC
Vent calme
Température -11°C
Humidité 92%
Pression 1028 hPa
Visibilité 10 km ou plus
Ciel couvert à une hauteur de 2900 ft

METAR: ESNG 182050Z 00000KT 9999 OVC029 M11/M12 Q1028

Heure: 22:22 (21:22 UTC)

Prévision

Le bulletin a été fait il y a 52 minutes, à 20:30 UTC
Prévision valable du 18 à 21 UTC au 18 à 23 UTC
Vent 1 kt de direction variable
Visibilité 10 km ou plus
Ciel couvert à une hauteur de 1000 ft
neige faible
Probabilité 40%
du 18 à 21 UTC au 18 à 23 UTC
Nuages fragmentés à une hauteur de 800 ft

TAF: ESNG 182030Z 1821/1823 VRB01KT 9999 -SN OVC010 PROB40 1821/1823 BKN008

Observations et prévisions météorologiques de plus de 4000 aéroports (messages METAR et TAF).

Les stations disponibles sont représentées par des disques jaunes et rouges sur la carte.

Passer la souris dessus pour voir le nom de la station.

Cliquer dessus pour voir les observations et prévisions météorologiques.

Pour changer de carte: cliquez sur les boutons verts avec une croix noire pour zoomer, sur le bouton vert avec un tiret pour effectuer un zoom arrière, ou sur les flèches vertes pour les cartes adjacentes.


METAR-TAF: